Time;durP1;ratioP1;P1;durP2;ratioP2;P2;SDS_P1;SDS_P2;PMS_P1;PMS_P2;Temp;Humidity;BMP_temperature;BMP_pressure;BME280_temperature;BME280_humidity;BME280_pressure;Samples;Min_cycle;Max_cycle;Signal;HPM_P1;HPM_P2
2022/05/03 00:00:39;;;;;;;;;;;12.80;99.90;;;;;;4975968;28;20013;-85
2022/05/03 00:03:09;;;;;;;;;;;12.80;99.90;;;;;;4954408;28;19996;-86
2022/05/03 00:05:39;;;;;;;;;;;12.80;99.90;;;;;;4970544;28;19932;-86
2022/05/03 00:08:09;;;;;;;;;;;12.80;99.90;;;;;;4959248;28;19932;-85
2022/05/03 00:10:40;;;;;;;;;;;12.80;99.90;;;;;;4970435;28;19956;-86
2022/05/03 00:13:09;;;;;;;;;;;12.70;99.90;;;;;;4958431;28;20249;-85
2022/05/03 00:15:37;;;;;;;;;;;12.70;99.90;;;;;;4953512;28;19926;-86
2022/05/03 00:18:06;;;;;;;;;;;12.70;99.90;;;;;;4971945;28;19926;-87
2022/05/03 00:20:34;;;;;;;;;;;12.70;99.90;;;;;;4970222;28;19973;-85
2022/05/03 00:23:01;;;;;;;;;;;12.60;99.90;;;;;;4973578;28;20649;-85
2022/05/03 00:25:28;;;;;;;;;;;12.60;99.90;;;;;;4975033;28;19926;-87
2022/05/03 00:27:55;;;;;;;;;;;12.60;99.90;;;;;;4962464;28;19993;-86
2022/05/03 00:30:23;;;;;;;;;;;;;;;;;;4973843;28;19926;-86
2022/05/03 00:32:50;;;;;;;;;;;12.60;99.90;;;;;;4951589;28;20403;-85
2022/05/03 00:35:18;;;;;;;;;;;12.60;99.90;;;;;;4952564;28;19926;-86
2022/05/03 00:37:45;;;;;;;;;;;12.50;99.90;;;;;;4970028;28;20013;-85
2022/05/03 00:40:13;;;;;;;;;;;12.50;99.90;;;;;;4970465;28;20558;-87
2022/05/03 00:42:45;;;;;;;;;;;12.50;99.90;;;;;;4972140;28;19969;-85
2022/05/03 00:45:15;;;;;;;;;;;12.50;99.90;;;;;;4971684;28;20029;-86
2022/05/03 00:47:45;;;;;;;;;;;12.50;99.90;;;;;;4974569;28;20351;-85
2022/05/03 00:50:15;;;;;;;;;;;12.40;99.90;;;;;;4975518;28;19941;-87
2022/05/03 00:52:46;;;;;;;;;;;12.40;99.90;;;;;;4953487;28;20029;-86
2022/05/03 00:55:29;;;;;;;;;;;12.40;99.90;;;;;;4970276;28;19997;-85
2022/05/03 00:58:02;;;;;;;;;;;12.40;99.90;;;;;;4951742;28;19940;-86
2022/05/03 01:00:31;;;;;;;;;;;12.30;99.90;;;;;;4969512;28;19994;-86
2022/05/03 01:03:10;;;;;;;;;;;12.30;99.90;;;;;;4977859;28;19930;-86
2022/05/03 01:05:45;;;;;;;;;;;12.30;99.90;;;;;;4974670;28;19933;-85
2022/05/03 01:08:22;;;;;;;;;;;12.30;99.90;;;;;;4971227;28;19926;-85
2022/05/03 01:10:58;;;;;;;;;;;12.30;99.90;;;;;;4959088;28;19930;-85
2022/05/03 01:13:28;;;;;;;;;;;12.20;99.90;;;;;;4958425;28;19926;-86
2022/05/03 01:15:59;;;;;;;;;;;12.20;99.90;;;;;;4960536;28;19969;-85
2022/05/03 01:18:27;;;;;;;;;;;12.20;99.90;;;;;;4973970;28;19973;-86
2022/05/03 01:21:03;;;;;;;;;;;12.20;99.90;;;;;;4957119;28;19945;-87
2022/05/03 01:23:57;;;;;;;;;;;12.20;99.90;;;;;;4976375;28;19933;-86
2022/05/03 01:26:54;;;;;;;;;;;12.10;99.90;;;;;;4958515;28;19949;-87
2022/05/03 01:29:32;;;;;;;;;;;12.10;99.90;;;;;;4937170;28;20405;-86
2022/05/03 01:32:00;;;;;;;;;;;12.10;99.90;;;;;;4947607;28;19976;-85
2022/05/03 01:34:28;;;;;;;;;;;12.10;99.90;;;;;;4978380;28;19926;-86
2022/05/03 01:37:10;;;;;;;;;;;12.00;99.90;;;;;;4978715;28;19957;-85
2022/05/03 01:39:40;;;;;;;;;;;12.00;99.90;;;;;;4970449;28;19973;-86
2022/05/03 01:42:10;;;;;;;;;;;12.00;99.90;;;;;;4974412;28;19973;-85
2022/05/03 01:44:40;;;;;;;;;;;12.00;99.90;;;;;;4978966;28;19926;-85
2022/05/03 01:47:14;;;;;;;;;;;11.90;99.90;;;;;;4984191;28;19962;-86
2022/05/03 01:52:44;;;;;;;;;;;11.90;99.90;;;;;;4974900;28;19970;-86
2022/05/03 01:55:25;;;;;;;;;;;11.90;99.90;;;;;;4974575;28;19926;-86
2022/05/03 01:57:55;;;;;;;;;;;11.90;99.90;;;;;;4976203;28;20036;-85
2022/05/03 02:00:24;;;;;;;;;;;11.90;99.90;;;;;;4977505;28;19961;-87
2022/05/03 02:02:55;;;;;;;;;;;11.80;99.90;;;;;;4961845;28;19937;-86
2022/05/03 02:05:27;;;;;;;;;;;11.80;99.90;;;;;;4985525;28;19934;-86
2022/05/03 02:07:55;;;;;;;;;;;11.80;99.90;;;;;;5046184;23;19933;-77
2022/05/03 02:10:36;;;;;;;;;;;11.80;99.90;;;;;;4989798;28;19932;-77
2022/05/03 02:13:06;;;;;;;;;;;11.70;99.90;;;;;;4989762;28;19941;-75
2022/05/03 02:15:38;;;;;;;;;;;11.70;99.90;;;;;;4987887;28;19933;-75
2022/05/03 02:18:06;;;;;;;;;;;11.70;99.90;;;;;;5061998;23;20436;-80
2022/05/03 02:23:21;;;;;;;;;;;11.70;99.90;;;;;;4577152;23;20411;-78
2022/05/03 02:28:24;;;;;;;;;;;11.60;99.90;;;;;;5045587;22;19940;-77
2022/05/03 02:33:21;;;;;;;;;;;11.60;99.90;;;;;;5006250;28;19934;-78
2022/05/03 02:35:49;;;;;;;;;;;11.60;99.90;;;;;;5007646;28;20307;-78
2022/05/03 02:38:20;;;;;;;;;;;11.50;99.90;;;;;;5006461;28;19956;-78
2022/05/03 02:40:50;;;;;;;;;;;11.50;99.90;;;;;;5000150;28;19932;-78
2022/05/03 02:43:18;;;;;;;;;;;11.50;99.90;;;;;;4974925;28;19934;-78
2022/05/03 02:45:51;;;;;;;;;;;11.50;99.90;;;;;;4973044;28;19925;-78
2022/05/03 02:48:22;;;;;;;;;;;11.50;99.90;;;;;;4987964;28;19926;-79
2022/05/03 02:50:53;;;;;;;;;;;11.40;99.90;;;;;;4990299;28;19926;-78
2022/05/03 02:53:24;;;;;;;;;;;11.40;99.90;;;;;;4972558;28;19930;-78
2022/05/03 02:55:52;;;;;;;;;;;11.40;99.90;;;;;;4969437;28;20308;-78
2022/05/03 02:58:34;;;;;;;;;;;11.40;99.90;;;;;;4972432;28;19925;-78
2022/05/03 03:04:08;;;;;;;;;;;11.30;99.90;;;;;;4991193;28;20404;-78
2022/05/03 03:06:38;;;;;;;;;;;11.30;99.90;;;;;;4985723;28;19981;-78
2022/05/03 03:09:07;;;;;;;;;;;11.30;99.90;;;;;;4992998;28;19926;-78
2022/05/03 03:11:43;;;;;;;;;;;11.20;99.80;;;;;;4973813;28;19930;-79
2022/05/03 03:14:11;;;;;;;;;;;11.20;99.80;;;;;;4971799;28;19925;-78
2022/05/03 03:16:42;;;;;;;;;;;11.30;99.80;;;;;;4974778;28;19926;-78
2022/05/03 03:19:15;;;;;;;;;;;11.20;99.80;;;;;;4987400;28;19958;-78
2022/05/03 03:21:46;;;;;;;;;;;11.20;99.80;;;;;;4989377;28;19961;-78
2022/05/03 03:24:14;;;;;;;;;;;11.20;99.90;;;;;;4988815;28;19930;-78
2022/05/03 03:26:42;;;;;;;;;;;11.20;99.90;;;;;;4984169;28;19930;-78
2022/05/03 03:29:10;;;;;;;;;;;11.10;99.90;;;;;;4972710;28;19933;-78
2022/05/03 03:31:37;;;;;;;;;;;11.10;99.90;;;;;;4982045;28;19941;-78
2022/05/03 03:34:05;;;;;;;;;;;11.10;99.80;;;;;;4972216;28;19936;-78
2022/05/03 03:36:32;;;;;;;;;;;11.10;99.80;;;;;;4971760;28;19933;-78
2022/05/03 03:39:01;;;;;;;;;;;11.10;99.80;;;;;;4969027;28;19956;-78
2022/05/03 03:41:29;;;;;;;;;;;11.10;99.90;;;;;;4966582;28;19936;-78
2022/05/03 03:43:56;;;;;;;;;;;11.10;99.90;;;;;;4967171;28;19981;-78
2022/05/03 03:46:23;;;;;;;;;;;11.10;99.80;;;;;;4955090;28;19926;-78
2022/05/03 03:48:50;;;;;;;;;;;11.00;99.80;;;;;;4972287;28;19968;-78
2022/05/03 03:51:17;;;;;;;;;;;11.00;99.80;;;;;;4971594;28;19926;-78
2022/05/03 03:53:44;;;;;;;;;;;11.00;99.90;;;;;;4956526;28;19984;-79
2022/05/03 03:56:13;;;;;;;;;;;11.00;99.90;;;;;;4969461;28;20200;-78
2022/05/03 03:58:40;;;;;;;;;;;11.00;99.90;;;;;;4969715;28;20389;-79
2022/05/03 04:01:08;;;;;;;;;;;10.90;99.90;;;;;;4970048;28;20480;-78
2022/05/03 04:03:36;;;;;;;;;;;10.90;99.90;;;;;;4949032;28;19937;-79
2022/05/03 04:06:04;;;;;;;;;;;10.80;99.80;;;;;;4968459;28;20348;-80
2022/05/03 04:08:31;;;;;;;;;;;10.90;99.90;;;;;;4968084;28;19934;-78
2022/05/03 04:10:58;;;;;;;;;;;10.90;99.90;;;;;;4969277;28;19937;-78
2022/05/03 04:13:26;;;;;;;;;;;10.80;99.80;;;;;;4966178;28;19934;-78
2022/05/03 04:15:54;;;;;;;;;;;10.80;99.90;;;;;;4968986;28;20879;-78
2022/05/03 04:18:21;;;;;;;;;;;10.80;99.90;;;;;;4968140;28;19927;-78
2022/05/03 04:20:48;;;;;;;;;;;10.80;99.90;;;;;;4967629;28;19934;-79
2022/05/03 04:23:21;;;;;;;;;;;10.80;99.90;;;;;;4967757;28;20414;-78
2022/05/03 04:25:48;;;;;;;;;;;10.80;99.90;;;;;;4966358;28;19989;-78
2022/05/03 04:28:15;;;;;;;;;;;10.80;99.90;;;;;;4959343;28;19926;-78
2022/05/03 04:30:44;;;;;;;;;;;10.70;99.90;;;;;;4963167;28;19926;-79
2022/05/03 04:33:11;;;;;;;;;;;10.70;99.90;;;;;;4985477;28;19934;-78
2022/05/03 04:35:38;;;;;;;;;;;10.70;99.90;;;;;;4986768;28;20795;-78
2022/05/03 04:38:05;;;;;;;;;;;10.70;99.90;;;;;;4993130;28;19929;-79
2022/05/03 04:40:32;;;;;;;;;;;10.70;99.90;;;;;;4988446;28;19926;-78
2022/05/03 04:43:00;;;;;;;;;;;10.70;99.90;;;;;;4992040;28;20419;-78
2022/05/03 04:45:27;;;;;;;;;;;10.70;99.90;;;;;;4971294;28;19937;-77
2022/05/03 04:47:56;;;;;;;;;;;10.70;99.90;;;;;;4988823;28;19981;-79
2022/05/03 04:50:23;;;;;;;;;;;10.60;99.90;;;;;;4992979;28;19932;-78
2022/05/03 04:52:51;;;;;;;;;;;10.60;99.90;;;;;;4972622;28;19933;-80
2022/05/03 04:55:18;;;;;;;;;;;10.60;99.90;;;;;;4995718;28;20008;-80
2022/05/03 04:57:45;;;;;;;;;;;10.50;99.90;;;;;;4997137;28;19936;-80
2022/05/03 05:03:34;;;;;;;;;;;10.60;99.90;;;;;;4991591;28;19926;-80
2022/05/03 05:06:01;;;;;;;;;;;10.50;99.90;;;;;;4997454;28;19925;-80
2022/05/03 05:08:30;;;;;;;;;;;10.50;99.90;;;;;;4997096;28;19926;-81
2022/05/03 05:10:58;;;;;;;;;;;10.50;99.90;;;;;;4979903;28;19925;-80
2022/05/03 05:13:25;;;;;;;;;;;10.50;99.90;;;;;;4997570;28;19940;-79
2022/05/03 05:15:52;;;;;;;;;;;10.50;99.90;;;;;;4975987;28;19925;-80
2022/05/03 05:18:19;;;;;;;;;;;10.50;99.90;;;;;;4976057;28;20008;-79
2022/05/03 05:20:47;;;;;;;;;;;10.50;99.90;;;;;;4974773;28;20660;-79
2022/05/03 05:23:14;;;;;;;;;;;10.50;99.90;;;;;;4989529;28;19926;-79
2022/05/03 05:25:41;;;;;;;;;;;10.50;99.90;;;;;;4992717;28;19932;-80
2022/05/03 05:28:08;;;;;;;;;;;10.50;99.90;;;;;;4975802;28;20033;-80
2022/05/03 05:30:35;;;;;;;;;;;10.50;99.90;;;;;;4994406;28;19961;-81
2022/05/03 05:33:03;;;;;;;;;;;10.50;99.90;;;;;;4992950;28;20048;-80
2022/05/03 05:35:31;;;;;;;;;;;10.50;99.90;;;;;;4990314;28;19926;-79
2022/05/03 05:37:59;;;;;;;;;;;10.50;99.90;;;;;;4988373;28;22454;-78
2022/05/03 05:40:26;;;;;;;;;;;10.40;99.90;;;;;;4988248;28;20546;-78
2022/05/03 05:42:53;;;;;;;;;;;10.30;99.90;;;;;;4987226;28;19987;-78
2022/05/03 05:45:20;;;;;;;;;;;10.20;99.90;;;;;;4988707;28;19929;-77
2022/05/03 05:47:47;;;;;;;;;;;10.20;99.90;;;;;;5000256;28;20442;-78
2022/05/03 05:50:14;;;;;;;;;;;10.10;99.90;;;;;;4988932;28;19930;-78
2022/05/03 05:55:26;;;;;;;;;;;10.10;99.90;;;;;;4975895;28;19932;-78
2022/05/03 05:57:53;;;;;;;;;;;10.10;99.90;;;;;;4988688;28;19933;-78
2022/05/03 06:00:20;;;;;;;;;;;10.10;99.90;;;;;;4990876;28;19925;-78
2022/05/03 06:02:47;;;;;;;;;;;10.20;99.90;;;;;;4993426;28;19940;-78
2022/05/03 06:05:14;;;;;;;;;;;10.20;99.90;;;;;;4975789;28;20300;-77
2022/05/03 06:07:41;;;;;;;;;;;10.20;99.90;;;;;;4993731;28;20025;-78
2022/05/03 06:10:08;;;;;;;;;;;10.20;99.90;;;;;;5001176;28;20397;-78
2022/05/03 06:12:37;;;;;;;;;;;10.20;99.90;;;;;;4994673;28;19992;-78
2022/05/03 06:15:04;;;;;;;;;;;10.30;99.90;;;;;;4993577;28;19949;-78
2022/05/03 06:17:31;;;;;;;;;;;10.30;99.90;;;;;;4995622;28;19936;-78
2022/05/03 06:19:58;;;;;;;;;;;10.30;99.90;;;;;;4991372;28;19926;-78
2022/05/03 06:22:25;;;;;;;;;;;10.30;99.90;;;;;;4996596;28;19989;-78
2022/05/03 06:24:52;;;;;;;;;;;10.30;99.90;;;;;;4990737;28;19925;-78
2022/05/03 06:27:19;;;;;;;;;;;10.40;99.90;;;;;;4974768;28;19926;-78
2022/05/03 06:29:47;;;;;;;;;;;10.40;99.90;;;;;;4999168;28;19968;-78
2022/05/03 06:32:14;;;;;;;;;;;10.40;99.90;;;;;;4987400;28;20381;-78
2022/05/03 06:34:41;;;;;;;;;;;10.40;99.90;;;;;;4993831;28;19980;-78
2022/05/03 06:37:08;;;;;;;;;;;10.50;99.90;;;;;;4994119;28;19930;-78
2022/05/03 06:39:35;;;;;;;;;;;10.50;99.90;;;;;;4986379;28;19972;-78
2022/05/03 06:42:03;;;;;;;;;;;10.50;99.90;;;;;;4999682;28;20415;-78
2022/05/03 06:44:30;;;;;;;;;;;10.50;99.90;;;;;;4973313;28;20397;-78
2022/05/03 06:46:59;;;;;;;;;;;10.50;99.90;;;;;;4988286;28;19930;-78
2022/05/03 06:49:25;;;;;;;;;;;10.50;99.90;;;;;;4988456;28;19952;-78
2022/05/03 06:51:52;;;;;;;;;;;10.50;99.90;;;;;;4978682;28;19926;-78
2022/05/03 06:54:19;;;;;;;;;;;10.60;99.90;;;;;;4991429;28;19996;-79
2022/05/03 06:56:46;;;;;;;;;;;10.60;99.90;;;;;;4973483;28;19926;-79
2022/05/03 06:59:13;;;;;;;;;;;10.60;99.90;;;;;;4990376;28;19934;-78
2022/05/03 07:01:40;;;;;;;;;;;10.70;99.90;;;;;;4971146;28;19932;-78
2022/05/03 07:04:08;;;;;;;;;;;10.70;99.90;;;;;;4991936;28;19976;-78
2022/05/03 07:06:35;;;;;;;;;;;10.70;99.90;;;;;;4991142;28;20040;-78
2022/05/03 07:09:03;;;;;;;;;;;10.70;99.90;;;;;;4990618;28;20024;-79
2022/05/03 07:11:30;;;;;;;;;;;10.80;99.90;;;;;;4971549;28;19932;-78
2022/05/03 07:13:58;;;;;;;;;;;10.80;99.90;;;;;;4990803;28;19930;-78
2022/05/03 07:16:24;;;;;;;;;;;10.80;99.90;;;;;;4966809;28;19925;-78
2022/05/03 07:24:22;;;;;;;;;;;10.90;99.90;;;;;;4981571;28;19926;-78
2022/05/03 07:26:49;;;;;;;;;;;10.90;99.90;;;;;;4992532;28;19925;-79
2022/05/03 07:29:16;;;;;;;;;;;10.90;99.90;;;;;;4998200;28;19960;-78
2022/05/03 07:31:43;;;;;;;;;;;10.90;99.90;;;;;;4985951;28;20630;-78
2022/05/03 07:34:10;;;;;;;;;;;10.90;99.90;;;;;;4968004;28;19927;-79
2022/05/03 07:36:40;;;;;;;;;;;10.90;99.90;;;;;;4972361;28;19976;-79
2022/05/03 07:39:07;;;;;;;;;;;10.90;99.90;;;;;;4969118;28;19989;-78
2022/05/03 07:41:34;;;;;;;;;;;10.90;99.90;;;;;;4973061;28;19930;-79
2022/05/03 07:44:01;;;;;;;;;;;11.00;99.90;;;;;;4972200;28;20400;-78
2022/05/03 07:46:28;;;;;;;;;;;11.00;99.90;;;;;;4949580;28;19931;-78
2022/05/03 07:48:56;;;;;;;;;;;11.00;99.90;;;;;;4975062;28;19980;-79
2022/05/03 07:51:23;;;;;;;;;;;11.00;99.90;;;;;;4955024;28;20330;-78
2022/05/03 07:53:51;;;;;;;;;;;11.10;99.90;;;;;;4955325;28;19926;-78
2022/05/03 07:56:18;;;;;;;;;;;11.10;99.90;;;;;;4964049;28;19930;-78
2022/05/03 07:58:45;;;;;;;;;;;11.10;99.90;;;;;;4974490;28;19926;-78
2022/05/03 08:01:12;;;;;;;;;;;11.10;99.90;;;;;;4968779;28;19930;-79
2022/05/03 08:03:39;;;;;;;;;;;11.10;99.90;;;;;;4975280;28;19930;-78
2022/05/03 08:06:06;;;;;;;;;;;11.10;99.90;;;;;;4970492;28;19930;-79
2022/05/03 08:08:33;;;;;;;;;;;11.20;99.90;;;;;;4980452;28;19972;-78
2022/05/03 08:11:03;;;;;;;;;;;11.20;99.90;;;;;;4972270;28;19930;-78
2022/05/03 08:13:30;;;;;;;;;;;11.10;99.90;;;;;;4977212;28;19933;-79
2022/05/03 08:15:57;;;;;;;;;;;11.20;99.90;;;;;;4966178;28;19937;-79
2022/05/03 08:18:25;;;;;;;;;;;11.20;99.90;;;;;;4969997;28;19933;-78
2022/05/03 08:20:53;;;;;;;;;;;11.20;99.90;;;;;;4956286;28;19941;-78
2022/05/03 08:23:20;;;;;;;;;;;11.20;99.90;;;;;;4959617;28;19926;-78
2022/05/03 08:25:47;;;;;;;;;;;11.20;99.90;;;;;;4972240;28;19936;-80
2022/05/03 08:28:17;;;;;;;;;;;11.30;99.90;;;;;;4968639;28;19926;-78
2022/05/03 08:30:44;;;;;;;;;;;11.30;99.90;;;;;;4975830;28;19930;-79
2022/05/03 08:33:11;;;;;;;;;;;11.30;99.90;;;;;;4978013;28;19925;-79
2022/05/03 08:35:38;;;;;;;;;;;11.30;99.90;;;;;;4996256;28;19934;-78
2022/05/03 08:43:35;;;;;;;;;;;11.40;99.90;;;;;;5000441;28;19926;-79
2022/05/03 08:46:03;;;;;;;;;;;11.30;99.90;;;;;;4994818;28;19930;-78
2022/05/03 08:48:31;;;;;;;;;;;11.40;99.90;;;;;;4997415;28;20398;-79
2022/05/03 08:50:59;;;;;;;;;;;11.40;99.90;;;;;;5001194;28;19930;-79
2022/05/03 08:53:27;;;;;;;;;;;11.40;99.90;;;;;;4997966;28;19972;-79
2022/05/03 08:55:54;;;;;;;;;;;11.40;99.90;;;;;;5001506;28;19969;-78
2022/05/03 08:58:23;;;;;;;;;;;11.50;99.90;;;;;;4995998;28;20296;-78
2022/05/03 09:00:51;;;;;;;;;;;11.50;99.90;;;;;;4995937;28;19932;-79
2022/05/03 09:03:18;;;;;;;;;;;11.50;99.90;;;;;;4996969;28;19990;-79
2022/05/03 09:05:46;;;;;;;;;;;11.50;99.90;;;;;;4993748;28;19973;-79
2022/05/03 09:08:14;;;;;;;;;;;11.50;99.90;;;;;;4990630;28;19926;-79
2022/05/03 09:10:44;;;;;;;;;;;11.60;99.90;;;;;;4998046;28;20439;-77
2022/05/03 09:13:18;;;;;;;;;;;11.60;99.90;;;;;;4995996;28;20348;-78
2022/05/03 09:15:46;;;;;;;;;;;11.60;99.90;;;;;;4995970;28;20447;-79
2022/05/03 09:18:22;;;;;;;;;;;11.60;99.90;;;;;;5000390;28;19988;-79
2022/05/03 09:23:49;;;;;;;;;;;11.70;99.90;;;;;;4995338;28;20414;-79
2022/05/03 09:26:18;;;;;;;;;;;11.70;99.90;;;;;;4998808;28;19972;-78
2022/05/03 09:28:49;;;;;;;;;;;11.70;99.90;;;;;;4998255;28;19932;-78
2022/05/03 09:31:27;;;;;;;;;;;11.70;99.90;;;;;;4982161;23;20401;-77
2022/05/03 09:33:56;;;;;;;;;;;11.80;99.90;;;;;;4974365;28;20017;-78
2022/05/03 09:36:23;;;;;;;;;;;11.80;99.90;;;;;;4972251;28;20024;-79
2022/05/03 09:38:50;;;;;;;;;;;11.80;99.90;;;;;;4971575;28;19926;-78
2022/05/03 09:41:18;;;;;;;;;;;11.80;99.90;;;;;;4965253;28;20298;-79
2022/05/03 09:44:04;;;;;;;;;;;11.90;99.90;;;;;;4972811;28;20021;-79
2022/05/03 09:46:31;;;;;;;;;;;11.90;99.90;;;;;;4971275;28;19957;-79
2022/05/03 09:49:00;;;;;;;;;;;11.90;99.90;;;;;;4973153;28;20425;-79
2022/05/03 09:51:28;;;;;;;;;;;11.90;99.90;;;;;;4974626;28;19927;-78
2022/05/03 09:53:56;;;;;;;;;;;11.90;99.90;;;;;;4968430;28;19927;-78
2022/05/03 09:56:24;;;;;;;;;;;12.00;99.90;;;;;;4973461;28;20527;-78
2022/05/03 09:58:53;;;;;;;;;;;12.00;99.90;;;;;;4970512;28;19926;-78
2022/05/03 10:01:20;;;;;;;;;;;12.00;99.90;;;;;;4965584;28;19926;-78
2022/05/03 10:03:48;;;;;;;;;;;12.10;99.90;;;;;;4979129;28;19934;-78
2022/05/03 10:06:16;;;;;;;;;;;12.00;99.90;;;;;;4976421;28;19926;-78
2022/05/03 10:08:44;;;;;;;;;;;12.10;99.90;;;;;;4973206;28;19957;-78
2022/05/03 10:11:11;;;;;;;;;;;12.10;99.90;;;;;;4954146;28;20446;-78
2022/05/03 10:13:38;;;;;;;;;;;12.10;99.90;;;;;;4962876;28;19926;-78
2022/05/03 10:21:38;;;;;;;;;;;12.20;99.90;;;;;;4967325;28;20408;-78
2022/05/03 10:24:05;;;;;;;;;;;12.20;99.90;;;;;;4976934;28;20020;-78
2022/05/03 10:26:51;;;;;;;;;;;12.30;99.90;;;;;;4971292;28;19926;-79
2022/05/03 10:29:18;;;;;;;;;;;12.30;99.90;;;;;;4966440;28;20009;-78
2022/05/03 10:31:55;;;;;;;;;;;12.30;99.90;;;;;;4969467;28;20410;-78
2022/05/03 10:34:41;;;;;;;;;;;12.30;99.90;;;;;;4971332;28;20463;-78
2022/05/03 10:37:10;;;;;;;;;;;12.40;99.90;;;;;;4970728;28;19934;-78
2022/05/03 10:39:45;;;;;;;;;;;12.40;99.90;;;;;;4972171;28;19961;-78
2022/05/03 10:42:13;;;;;;;;;;;12.40;99.90;;;;;;4971937;28;19984;-79
2022/05/03 10:44:41;;;;;;;;;;;12.50;99.90;;;;;;4971158;28;20001;-78
2022/05/03 10:47:08;;;;;;;;;;;12.50;99.90;;;;;;4955298;28;19930;-78
2022/05/03 10:49:36;;;;;;;;;;;12.50;99.90;;;;;;4967914;28;19957;-78
2022/05/03 10:52:17;;;;;;;;;;;12.50;99.90;;;;;;4969321;28;19934;-78
2022/05/03 10:55:02;;;;;;;;;;;12.60;99.90;;;;;;4977083;28;19938;-79
2022/05/03 10:57:29;;;;;;;;;;;12.60;99.90;;;;;;4973420;28;19993;-79
2022/05/03 10:59:56;;;;;;;;;;;12.60;99.90;;;;;;4970834;28;19937;-79
2022/05/03 11:02:23;;;;;;;;;;;12.70;99.90;;;;;;4969280;28;19949;-79
2022/05/03 11:05:09;;;;;;;;;;;12.70;99.90;;;;;;4971790;28;19930;-78
2022/05/03 11:07:37;;;;;;;;;;;12.70;99.90;;;;;;4970875;28;20407;-78
2022/05/03 11:10:23;;;;;;;;;;;12.80;99.90;;;;;;4971259;28;19930;-79
2022/05/03 11:12:50;;;;;;;;;;;12.80;99.90;;;;;;4968438;28;19926;-78
2022/05/03 11:15:17;;;;;;;;;;;12.80;99.90;;;;;;4971491;28;19933;-79
2022/05/03 11:17:44;;;;;;;;;;;12.80;99.90;;;;;;4970912;28;19933;-79
2022/05/03 11:20:21;;;;;;;;;;;12.90;99.90;;;;;;4967889;28;19934;-78
2022/05/03 11:22:50;;;;;;;;;;;12.90;99.90;;;;;;4965711;28;20117;-78
2022/05/03 11:25:17;;;;;;;;;;;12.90;99.90;;;;;;4978287;28;20466;-78
2022/05/03 11:27:44;;;;;;;;;;;13.00;99.90;;;;;;4976617;28;19971;-78
2022/05/03 11:30:12;;;;;;;;;;;13.00;99.90;;;;;;4953886;28;20297;-79
2022/05/03 11:32:39;;;;;;;;;;;13.00;99.90;;;;;;4954732;28;19961;-79
2022/05/03 11:35:08;;;;;;;;;;;13.10;99.90;;;;;;4964785;28;19926;-79
2022/05/03 11:37:36;;;;;;;;;;;13.10;99.90;;;;;;4965724;28;19926;-78
2022/05/03 11:40:06;;;;;;;;;;;13.10;99.90;;;;;;4977332;28;19926;-79
2022/05/03 11:42:36;;;;;;;;;;;13.20;99.90;;;;;;4971987;28;19933;-79
2022/05/03 11:45:04;;;;;;;;;;;13.20;99.90;;;;;;4969402;28;19984;-78
2022/05/03 11:47:33;;;;;;;;;;;13.20;99.90;;;;;;4968072;28;20020;-78
2022/05/03 11:50:01;;;;;;;;;;;13.30;99.90;;;;;;4961734;28;19996;-78
2022/05/03 11:57:58;;;;;;;;;;;13.40;99.90;;;;;;4968451;28;19926;-79
2022/05/03 12:00:25;;;;;;;;;;;13.40;99.90;;;;;;4958219;28;19941;-79
2022/05/03 12:02:52;;;;;;;;;;;13.50;99.90;;;;;;4972830;28;19930;-78
2022/05/03 12:05:20;;;;;;;;;;;13.50;99.90;;;;;;4969615;28;20282;-79
2022/05/03 12:07:48;;;;;;;;;;;13.50;99.90;;;;;;4957249;28;19934;-79
2022/05/03 12:10:21;;;;;;;;;;;13.60;99.90;;;;;;4972156;28;20008;-79
2022/05/03 12:12:48;;;;;;;;;;;13.60;99.90;;;;;;4970612;28;19973;-79
2022/05/03 12:15:19;;;;;;;;;;;13.70;99.90;;;;;;4967390;28;19926;-78
2022/05/03 12:17:53;;;;;;;;;;;13.70;99.90;;;;;;4966427;28;19934;-78
2022/05/03 12:20:21;;;;;;;;;;;13.70;99.90;;;;;;4964884;28;20032;-79
2022/05/03 12:23:03;;;;;;;;;;;13.80;99.90;;;;;;4971777;28;19933;-79
2022/05/03 12:25:31;;;;;;;;;;;13.90;99.90;;;;;;4968833;28;20373;-79
2022/05/03 12:28:03;;;;;;;;;;;13.90;99.90;;;;;;4968631;28;19926;-79
2022/05/03 12:30:30;;;;;;;;;;;14.00;99.90;;;;;;4967140;28;20000;-79
2022/05/03 12:33:00;;;;;;;;;;;14.00;99.90;;;;;;4968741;28;19926;-79
2022/05/03 12:35:31;;;;;;;;;;;14.00;99.90;;;;;;4971864;28;19933;-78
2022/05/03 12:37:58;;;;;;;;;;;14.10;99.90;;;;;;4962785;28;19926;-79
2022/05/03 12:40:26;;;;;;;;;;;14.10;99.90;;;;;;4970178;28;20381;-79
2022/05/03 12:42:54;;;;;;;;;;;14.20;99.90;;;;;;4976169;28;20062;-79
2022/05/03 12:45:29;;;;;;;;;;;14.20;99.90;;;;;;4971652;28;19930;-79
2022/05/03 12:47:56;;;;;;;;;;;14.20;99.90;;;;;;4967877;28;20024;-79
2022/05/03 12:50:24;;;;;;;;;;;14.30;99.90;;;;;;4968730;28;19985;-79
2022/05/03 12:52:51;;;;;;;;;;;14.40;99.90;;;;;;4972592;28;19934;-79
2022/05/03 12:55:19;;;;;;;;;;;14.30;99.90;;;;;;4958370;28;19980;-79
2022/05/03 13:00:33;;;;;;;;;;;14.40;99.90;;;;;;4971076;28;20328;-79
2022/05/03 13:03:01;;;;;;;;;;;14.40;99.90;;;;;;4970944;28;19926;-78
2022/05/03 13:05:28;;;;;;;;;;;14.50;99.90;;;;;;4946178;28;19930;-79
2022/05/03 13:07:55;;;;;;;;;;;14.50;99.90;;;;;;4951830;28;19981;-79
2022/05/03 13:10:22;;;;;;;;;;;14.50;99.90;;;;;;4959999;28;20413;-79
2022/05/03 13:12:51;;;;;;;;;;;;;;;;;;4970182;28;19972;-79
2022/05/03 13:15:18;;;;;;;;;;;14.60;99.90;;;;;;4963310;28;19926;-79
2022/05/03 13:17:46;;;;;;;;;;;14.70;99.90;;;;;;4974058;28;19926;-80
2022/05/03 13:20:13;;;;;;;;;;;14.70;99.90;;;;;;4959833;28;19930;-79
2022/05/03 13:22:40;;;;;;;;;;;14.80;99.90;;;;;;4973356;28;19938;-79
2022/05/03 13:25:08;;;;;;;;;;;14.80;99.90;;;;;;4971460;28;19937;-79
2022/05/03 13:27:35;;;;;;;;;;;14.90;99.90;;;;;;4960473;28;19953;-79
2022/05/03 13:30:02;;;;;;;;;;;14.90;99.90;;;;;;4978117;28;19969;-79
2022/05/03 13:32:29;;;;;;;;;;;15.00;99.90;;;;;;4970157;28;19926;-79
2022/05/03 13:34:58;;;;;;;;;;;15.00;99.90;;;;;;4975001;28;20046;-79
2022/05/03 13:42:54;;;;;;;;;;;15.20;99.90;;;;;;4972379;28;19926;-79
2022/05/03 13:45:21;;;;;;;;;;;15.30;99.90;;;;;;4974504;28;19933;-79
2022/05/03 13:47:50;;;;;;;;;;;15.40;99.90;;;;;;4975440;28;19926;-79
2022/05/03 13:50:19;;;;;;;;;;;15.40;99.90;;;;;;4960137;28;19926;-79
2022/05/03 13:52:46;;;;;;;;;;;15.50;99.90;;;;;;4973696;28;19933;-80
2022/05/03 13:55:13;;;;;;;;;;;15.50;99.90;;;;;;4960984;28;19934;-80
2022/05/03 13:57:40;;;;;;;;;;;15.60;99.90;;;;;;4972488;28;20309;-79
2022/05/03 14:00:10;;;;;;;;;;;15.60;99.90;;;;;;4972160;28;20013;-79
2022/05/03 14:02:42;;;;;;;;;;;15.60;99.90;;;;;;4975520;28;19927;-78
2022/05/03 14:05:11;;;;;;;;;;;15.70;99.90;;;;;;4964267;28;19934;-78
2022/05/03 14:07:43;;;;;;;;;;;15.80;99.90;;;;;;4967926;28;20196;-79
2022/05/03 14:10:10;;;;;;;;;;;15.90;99.90;;;;;;4971669;28;20472;-78
2022/05/03 14:12:38;;;;;;;;;;;15.90;99.90;;;;;;4962574;28;19938;-78
2022/05/03 14:15:06;;;;;;;;;;;16.00;99.90;;;;;;4959048;28;19945;-78
2022/05/03 14:17:33;;;;;;;;;;;16.00;99.90;;;;;;4960713;28;19926;-79
2022/05/03 14:20:00;;;;;;;;;;;16.10;99.90;;;;;;4977066;28;19999;-78
2022/05/03 14:22:28;;;;;;;;;;;16.10;99.90;;;;;;4973207;28;19940;-78
2022/05/03 14:24:57;;;;;;;;;;;16.20;99.90;;;;;;4956175;28;19933;-79
2022/05/03 14:27:25;;;;;;;;;;;16.20;99.90;;;;;;4971372;28;20025;-79
2022/05/03 14:29:52;;;;;;;;;;;16.20;99.90;;;;;;4972172;28;20353;-78
2022/05/03 14:32:23;;;;;;;;;;;16.30;99.90;;;;;;4972154;28;19926;-78
2022/05/03 14:34:51;;;;;;;;;;;16.30;99.90;;;;;;4960538;28;19958;-78
2022/05/03 14:37:19;;;;;;;;;;;16.40;99.90;;;;;;4974066;28;19973;-78
2022/05/03 14:39:48;;;;;;;;;;;16.40;99.90;;;;;;4955458;28;19926;-78
2022/05/03 14:42:17;;;;;;;;;;;16.50;99.90;;;;;;4973538;28;19926;-79
2022/05/03 14:44:45;;;;;;;;;;;16.50;99.90;;;;;;4969389;28;19933;-78
2022/05/03 14:47:12;;;;;;;;;;;16.60;99.90;;;;;;4972144;28;19934;-78
2022/05/03 14:49:41;;;;;;;;;;;16.60;99.90;;;;;;4973861;28;19930;-79
2022/05/03 14:52:11;;;;;;;;;;;16.70;99.90;;;;;;4974291;28;19926;-78
2022/05/03 14:54:38;;;;;;;;;;;16.80;99.90;;;;;;4974424;28;19926;-78
2022/05/03 15:02:54;;;;;;;;;;;16.90;99.90;;;;;;4967512;28;19936;-78
2022/05/03 15:05:23;;;;;;;;;;;17.00;99.90;;;;;;4966494;28;19930;-78
2022/05/03 15:07:51;;;;;;;;;;;17.00;99.90;;;;;;4959391;28;20392;-79
2022/05/03 15:10:19;;;;;;;;;;;17.00;99.90;;;;;;4967665;28;19934;-78
2022/05/03 15:12:46;;;;;;;;;;;17.00;99.90;;;;;;4954514;28;19930;-79
2022/05/03 15:15:16;;;;;;;;;;;17.00;99.90;;;;;;4968884;28;20368;-79
2022/05/03 15:17:44;;;;;;;;;;;17.00;99.90;;;;;;4969270;28;19981;-78
2022/05/03 15:20:13;;;;;;;;;;;17.10;99.90;;;;;;4962808;28;20022;-79
2022/05/03 15:25:26;;;;;;;;;;;17.10;99.90;;;;;;4968059;28;19922;-80
2022/05/03 15:27:53;;;;;;;;;;;17.10;99.90;;;;;;4953961;28;19926;-80
2022/05/03 15:30:26;;;;;;;;;;;17.10;99.90;;;;;;4968503;28;19934;-81